Time;durP1;ratioP1;P1;durP2;ratioP2;P2;SDS_P1;SDS_P2;PMS_P1;PMS_P2;Temp;Humidity;BMP_temperature;BMP_pressure;BME280_temperature;BME280_humidity;BME280_pressure;Samples;Min_cycle;Max_cycle;Signal;HPM_P1;HPM_P2
2022/09/10 00:00:57;;;;;;;17.15;12.32;;;;;;;-146.58;100.00;69501.63;4991676;28;20049;-65
2022/09/10 00:03:23;;;;;;;14.73;10.70;;;;;;;-146.58;100.00;69501.63;4994514;28;20045;-65
2022/09/10 00:05:48;;;;;;;16.30;11.25;;;;;;;-146.58;100.00;69501.63;4992611;28;20125;-65
2022/09/10 00:08:14;;;;;;;24.13;12.75;;;;;;;-146.58;100.00;69501.63;4993582;28;20161;-65
2022/09/10 00:10:45;;;;;;;15.20;10.43;;;;;;;-146.58;100.00;69501.63;4992393;28;20405;-64
2022/09/10 00:13:13;;;;;;;16.75;10.68;;;;;;;-146.58;100.00;69501.63;4974297;28;20087;-64
2022/09/10 00:15:40;;;;;;;11.98;10.32;;;;;;;-146.58;100.00;69501.63;4972680;28;20039;-64
2022/09/10 00:18:08;;;;;;;21.90;10.93;;;;;;;-146.58;100.00;69501.63;4974254;28;20027;-64
2022/09/10 00:20:34;;;;;;;17.20;10.98;;;;;;;-146.58;100.00;69501.63;4974837;28;20039;-64
2022/09/10 00:23:01;;;;;;;23.77;12.05;;;;;;;-146.58;100.00;69501.63;4993507;28;20046;-64
2022/09/10 00:25:31;;;;;;;13.02;10.20;;;;;;;-146.58;100.00;69501.63;4992054;28;20046;-65
2022/09/10 00:27:56;;;;;;;20.08;10.48;;;;;;;-146.58;100.00;69501.63;4993722;28;20041;-64
2022/09/10 00:30:22;;;;;;;13.70;10.10;;;;;;;-146.58;100.00;69501.63;4991560;28;20505;-64
2022/09/10 00:32:51;;;;;;;15.63;11.23;;;;;;;-146.58;100.00;69501.63;4993505;28;20039;-65
2022/09/10 00:35:18;;;;;;;18.58;11.82;;;;;;;-146.58;100.00;69501.63;4992241;28;20038;-64
2022/09/10 00:37:43;;;;;;;17.55;10.45;;;;;;;-146.58;100.00;69501.63;4993599;28;20066;-65
2022/09/10 00:40:10;;;;;;;13.68;11.38;;;;;;;-146.58;100.00;69501.63;4991340;28;20395;-64
2022/09/10 00:42:35;;;;;;;14.88;11.40;;;;;;;-146.58;100.00;69501.63;4993443;28;20092;-65
2022/09/10 00:45:03;;;;;;;23.65;14.07;;;;;;;-146.58;100.00;69501.63;4991589;28;20438;-65
2022/09/10 00:47:36;;;;;;;20.48;11.90;;;;;;;-146.58;100.00;69501.63;4993617;28;20140;-64
2022/09/10 00:50:14;;;;;;;14.13;12.00;;;;;;;-146.58;100.00;69501.63;4990282;28;20057;-64
2022/09/10 00:52:40;;;;;;;15.02;12.63;;;;;;;-146.58;100.00;69501.63;4992772;28;20026;-64
2022/09/10 00:55:06;;;;;;;21.45;13.30;;;;;;;-146.58;100.00;69501.63;4991595;28;20042;-65
2022/09/10 00:57:31;;;;;;;28.55;12.93;;;;;;;-146.58;100.00;69501.63;4993016;28;20387;-62
2022/09/10 01:00:10;;;;;;;24.50;14.25;;;;;;;-146.58;100.00;69501.63;4989798;28;20049;-62
2022/09/10 01:02:35;;;;;;;20.75;13.82;;;;;;;-146.58;100.00;69501.63;4992755;28;20030;-65
2022/09/10 01:05:03;;;;;;;17.77;13.75;;;;;;;-146.58;100.00;69501.63;4991320;28;20509;-65
2022/09/10 01:07:29;;;;;;;21.75;14.27;;;;;;;-146.58;100.00;69501.63;4992882;28;20034;-65
2022/09/10 01:10:02;;;;;;;25.48;14.55;;;;;;;-146.58;100.00;69501.63;4991029;28;20510;-65
2022/09/10 01:13:10;;;;;;;31.40;14.00;;;;;;;-146.58;100.00;69501.63;4992868;28;20129;-65
2022/09/10 01:15:52;;;;;;;21.33;14.20;;;;;;;-146.58;100.00;69501.63;4990745;28;20077;-65
2022/09/10 01:19:08;;;;;;;20.17;15.25;;;;;;;-146.58;100.00;69501.63;4992680;28;20489;-65
2022/09/10 01:21:58;;;;;;;17.30;13.80;;;;;;;-146.58;100.00;69501.63;4988461;28;20623;-65
2022/09/10 01:24:43;;;;;;;23.42;14.20;;;;;;;-146.58;100.00;69501.63;4991240;28;20050;-65
2022/09/10 01:27:31;;;;;;;20.67;15.55;;;;;;;-146.58;100.00;69501.63;4992369;28;20049;-65
2022/09/10 01:30:06;;;;;;;25.75;13.73;;;;;;;-146.58;100.00;69501.63;4990441;28;20506;-66
2022/09/10 01:32:56;;;;;;;24.05;15.82;;;;;;;-146.58;100.00;69501.63;4992252;28;20081;-68
2022/09/10 01:35:44;;;;;;;19.73;15.85;;;;;;;-146.58;100.00;69501.63;4985049;28;20057;-68
2022/09/10 01:38:37;;;;;;;18.92;14.18;;;;;;;-146.58;100.00;69501.63;4992067;28;20029;-65
2022/09/10 01:41:03;;;;;;;21.45;17.10;;;;;;;-146.58;100.00;69501.63;4990320;28;20046;-65
2022/09/10 01:43:28;;;;;;;19.90;13.57;;;;;;;-146.58;100.00;69501.63;4992350;28;20022;-65
2022/09/10 01:46:02;;;;;;;22.50;13.98;;;;;;;-146.58;100.00;69501.63;4990330;28;20506;-65
2022/09/10 01:48:49;;;;;;;18.67;13.43;;;;;;;-146.58;100.00;69501.63;4992370;28;20117;-65
2022/09/10 01:52:00;;;;;;;19.17;14.20;;;;;;;-146.58;100.00;69501.63;4970581;28;20047;-65
2022/09/10 01:54:32;;;;;;;28.33;15.20;;;;;;;-146.58;100.00;69501.63;4973008;28;20417;-65
2022/09/10 01:57:03;;;;;;;26.95;15.25;;;;;;;-146.58;100.00;69501.63;4991912;28;20030;-65
2022/09/10 01:59:42;;;;;;;29.10;16.13;;;;;;;-146.58;100.00;69501.63;4990031;28;20053;-65
2022/09/10 02:02:22;;;;;;;18.85;15.52;;;;;;;-146.58;100.00;69501.63;4991365;28;20030;-66
2022/09/10 02:04:50;;;;;;;20.23;14.50;;;;;;;-146.58;100.00;69501.63;4990572;28;20062;-65
2022/09/10 02:07:21;;;;;;;20.80;16.65;;;;;;;-146.58;100.00;69501.63;4991605;28;20039;-65
2022/09/10 02:09:47;;;;;;;27.02;16.52;;;;;;;-146.58;100.00;69501.63;4990399;28;20054;-65
2022/09/10 02:12:18;;;;;;;28.23;15.38;;;;;;;-146.58;100.00;69501.63;4991360;28;20026;-65
2022/09/10 02:14:45;;;;;;;19.52;15.88;;;;;;;-146.58;100.00;69501.63;4990058;28;20038;-65
2022/09/10 02:17:10;;;;;;;27.13;17.25;;;;;;;-146.58;100.00;69501.63;4991861;28;20041;-65
2022/09/10 02:19:36;;;;;;;23.83;17.50;;;;;;;-146.58;100.00;69501.63;4990355;28;20042;-66
2022/09/10 02:22:03;;;;;;;30.13;19.92;;;;;;;-146.58;100.00;69501.63;4990802;28;20038;-67
2022/09/10 02:24:28;;;;;;;22.67;17.15;;;;;;;-146.58;100.00;69501.63;4990636;28;20046;-67
2022/09/10 02:26:54;;;;;;;29.60;17.85;;;;;;;-146.58;100.00;69501.63;4991450;28;20034;-67
2022/09/10 02:29:19;;;;;;;31.73;19.25;;;;;;;-146.58;100.00;69501.63;4989984;28;20057;-67
2022/09/10 02:31:46;;;;;;;26.35;17.92;;;;;;;-146.58;100.00;69501.63;4991529;28;20453;-67
2022/09/10 02:34:11;;;;;;;28.77;18.38;;;;;;;-146.58;100.00;69501.63;4990206;28;20061;-67
2022/09/10 02:36:37;;;;;;;29.88;18.15;;;;;;;-146.58;100.00;69501.63;4990976;28;20109;-67
2022/09/10 02:39:04;;;;;;;23.90;17.48;;;;;;;-146.58;100.00;69501.63;4990088;28;20050;-67
2022/09/10 02:41:33;;;;;;;28.55;19.20;;;;;;;-146.58;100.00;69501.63;4991309;28;20482;-67
2022/09/10 02:44:00;;;;;;;24.33;18.73;;;;;;;-146.58;100.00;69501.63;4989876;28;20038;-66
2022/09/10 02:46:26;;;;;;;30.83;19.45;;;;;;;-146.58;100.00;69501.63;4991532;28;20504;-66
2022/09/10 02:48:53;;;;;;;19.73;15.57;;;;;;;-146.58;100.00;69501.63;4989757;28;20026;-64
2022/09/10 02:51:19;;;;;;;27.80;19.50;;;;;;;-146.58;100.00;69501.63;4990932;28;20029;-66
2022/09/10 02:53:45;;;;;;;22.83;17.10;;;;;;;-146.58;100.00;69501.63;4990219;28;20386;-66
2022/09/10 02:56:11;;;;;;;21.00;18.35;;;;;;;-146.58;100.00;69501.63;4991469;28;20029;-66
2022/09/10 02:58:36;;;;;;;41.70;19.17;;;;;;;-146.58;100.00;69501.63;4989532;28;20053;-66
2022/09/10 03:01:13;;;;;;;26.17;18.13;;;;;;;-146.58;100.00;69501.63;4990924;28;20034;-66
2022/09/10 03:03:39;;;;;;;26.83;18.40;;;;;;;-146.58;100.00;69501.63;4990375;28;20112;-67
2022/09/10 03:06:05;;;;;;;23.85;18.40;;;;;;;-146.58;100.00;69501.63;4990646;28;20057;-67
2022/09/10 03:08:31;;;;;;;24.08;17.80;;;;;;;-146.58;100.00;69501.63;4991395;28;20062;-67
2022/09/10 03:10:58;;;;;;;26.73;19.80;;;;;;;-146.58;100.00;69501.63;4989514;28;20058;-67
2022/09/10 03:13:24;;;;;;;33.30;21.02;;;;;;;-146.58;100.00;69501.63;4993787;28;20026;-67
2022/09/10 03:15:50;;;;;;;30.38;21.42;;;;;;;-146.58;100.00;69501.63;4993551;28;20125;-67
2022/09/10 03:18:17;;;;;;;28.00;17.70;;;;;;;-146.58;100.00;69501.63;4994766;28;20026;-67
2022/09/10 03:20:42;;;;;;;30.85;17.77;;;;;;;-146.58;100.00;69501.63;4992922;28;20410;-68
2022/09/10 03:23:07;;;;;;;29.13;18.75;;;;;;;-146.58;100.00;69501.63;4994944;28;20027;-68
2022/09/10 03:25:33;;;;;;;27.92;18.50;;;;;;;-146.58;100.00;69501.63;4993649;28;20038;-66
2022/09/10 03:27:58;;;;;;;20.58;17.40;;;;;;;-146.58;100.00;69501.63;4994432;28;20026;-65
2022/09/10 03:30:24;;;;;;;29.77;18.83;;;;;;;-146.58;100.00;69501.63;4992974;28;20499;-65
2022/09/10 03:32:49;;;;;;;30.73;21.00;;;;;;;-146.58;100.00;69501.63;4994636;28;20497;-66
2022/09/10 03:35:15;;;;;;;27.48;18.70;;;;;;;-146.58;100.00;69501.63;4992669;28;20046;-66
2022/09/10 03:37:41;;;;;;;27.27;19.85;;;;;;;-146.58;100.00;69501.63;4994834;28;20034;-66
2022/09/10 03:40:07;;;;;;;26.92;18.42;;;;;;;-146.58;100.00;69501.63;4993159;28;20046;-66
2022/09/10 03:42:32;;;;;;;24.17;17.35;;;;;;;-146.58;100.00;69501.63;4994334;28;20120;-66
2022/09/10 03:44:58;;;;;;;29.50;17.60;;;;;;;-146.58;100.00;69501.63;4992567;28;20073;-66
2022/09/10 03:47:24;;;;;;;30.88;18.33;;;;;;;-146.58;100.00;69501.63;4994500;28;20037;-66
2022/09/10 03:49:49;;;;;;;24.63;18.35;;;;;;;-146.58;100.00;69501.63;4992601;28;20042;-66
2022/09/10 03:52:15;;;;;;;33.35;18.48;;;;;;;-146.58;100.00;69501.63;4994133;28;20030;-66
2022/09/10 03:54:41;;;;;;;30.08;18.77;;;;;;;-146.58;100.00;69501.63;4992906;28;20050;-63
2022/09/10 03:57:07;;;;;;;27.45;17.70;;;;;;;-146.58;100.00;69501.63;4993781;28;20022;-63
2022/09/10 03:59:33;;;;;;;51.60;19.73;;;;;;;-146.58;100.00;69501.63;4992698;28;20050;-63
2022/09/10 04:01:58;;;;;;;36.35;20.73;;;;;;;-146.58;100.00;69501.63;4993420;28;20397;-63
2022/09/10 04:04:23;;;;;;;25.85;18.27;;;;;;;-146.58;100.00;69501.63;4992241;28;20065;-64
2022/09/10 04:06:51;;;;;;;34.10;19.88;;;;;;;-146.58;100.00;69501.63;4994252;28;20486;-63
2022/09/10 04:09:16;;;;;;;27.30;19.03;;;;;;;-146.58;100.00;69501.63;4992686;28;20049;-63
2022/09/10 04:11:42;;;;;;;36.53;20.40;;;;;;;-146.58;100.00;69501.63;4993080;28;20386;-63
2022/09/10 04:14:07;;;;;;;38.78;19.17;;;;;;;-146.58;100.00;69501.63;4992360;28;20050;-63
2022/09/10 04:16:32;;;;;;;30.80;18.83;;;;;;;-146.58;100.00;69501.63;4994175;28;20022;-62
2022/09/10 04:18:58;;;;;;;36.22;18.35;;;;;;;-146.58;100.00;69501.63;4991407;28;20461;-63
2022/09/10 04:21:23;;;;;;;33.47;17.27;;;;;;;-146.58;100.00;69501.63;4993761;28;20037;-62
2022/09/10 04:23:53;;;;;;;30.77;18.35;;;;;;;-146.58;100.00;69501.63;4992182;28;20049;-64
2022/09/10 04:26:19;;;;;;;32.58;18.13;;;;;;;-146.58;100.00;69501.63;4993511;28;20485;-64
2022/09/10 04:28:44;;;;;;;24.88;19.70;;;;;;;-146.58;100.00;69501.63;4991915;28;20480;-64
2022/09/10 04:31:10;;;;;;;31.27;19.67;;;;;;;-146.58;100.00;69501.63;4993073;28;20027;-64
2022/09/10 04:33:36;;;;;;;32.95;20.70;;;;;;;-146.58;100.00;69501.63;4992058;28;20065;-64
2022/09/10 04:36:03;;;;;;;30.52;19.75;;;;;;;-146.58;100.00;69501.63;4992997;28;20034;-68
2022/09/10 04:38:31;;;;;;;26.08;20.60;;;;;;;-146.58;100.00;69501.63;4993680;28;20101;-67
2022/09/10 04:40:59;;;;;;;;;;;;;;;-146.58;100.00;69501.63;4991727;28;20117;-67
2022/09/10 04:43:26;;;;;;;26.98;18.42;;;;;;;-146.58;100.00;69501.63;4993434;28;19909;-68
2022/09/10 04:45:54;;;;;;;30.63;19.40;;;;;;;-146.58;100.00;69501.63;4991361;28;20046;-67
2022/09/10 04:48:22;;;;;;;36.75;21.40;;;;;;;-146.58;100.00;69501.63;4993259;28;20034;-68
2022/09/10 04:50:51;;;;;;;;;;;;;;;-146.58;100.00;69501.63;4988854;28;20550;-67
2022/09/10 04:53:17;;;;;;;35.30;21.10;;;;;;;-146.58;100.00;69501.63;4983103;28;19922;-67
2022/09/10 04:55:44;;;;;;;36.47;20.98;;;;;;;-146.58;100.00;69501.63;4991358;28;20056;-67
2022/09/10 04:58:10;;;;;;;30.27;20.00;;;;;;;-146.58;100.00;69501.63;4990928;28;20022;-67
2022/09/10 05:00:38;;;;;;;32.75;20.83;;;;;;;-146.58;100.00;69501.63;4990933;28;20477;-67
2022/09/10 05:03:04;;;;;;;31.88;20.45;;;;;;;-146.58;100.00;69501.63;4992544;28;20109;-67
2022/09/10 05:05:30;;;;;;;32.92;20.02;;;;;;;-146.58;100.00;69501.63;4990600;28;20054;-67
2022/09/10 05:07:55;;;;;;;26.45;19.40;;;;;;;-146.58;100.00;69501.63;4992658;28;20109;-67
2022/09/10 05:10:22;;;;;;;23.80;18.08;;;;;;;-146.58;100.00;69501.63;4990903;28;20409;-67
2022/09/10 05:12:47;;;;;;;23.73;18.48;;;;;;;-146.58;100.00;69501.63;4992853;28;20093;-67
2022/09/10 05:15:13;;;;;;;33.70;19.02;;;;;;;-146.58;100.00;69501.63;5000333;28;20030;-67
2022/09/10 05:17:38;;;;;;;38.03;24.02;;;;;;;-146.58;100.00;69501.63;4991211;28;20506;-67
2022/09/10 05:20:06;;;;;;;35.33;21.00;;;;;;;-146.58;100.00;69501.63;4989506;28;20049;-67
2022/09/10 05:22:32;;;;;;;34.80;20.67;;;;;;;-146.58;100.00;69501.63;4992535;28;20490;-68
2022/09/10 05:24:57;;;;;;;33.03;19.95;;;;;;;-146.58;100.00;69501.63;4990309;28;20049;-68
2022/09/10 05:27:23;;;;;;;30.92;20.35;;;;;;;-146.58;100.00;69501.63;4990289;28;20081;-64
2022/09/10 05:29:48;;;;;;;35.08;19.25;;;;;;;-146.58;100.00;69501.63;4989759;28;20054;-64
2022/09/10 05:32:14;;;;;;;30.15;21.00;;;;;;;-146.58;100.00;69501.63;4990351;28;20482;-64
2022/09/10 05:34:39;;;;;;;31.02;19.52;;;;;;;-146.58;100.00;69501.63;4988256;28;20038;-63
2022/09/10 05:37:07;;;;;;;28.45;19.23;;;;;;;-146.58;100.00;69501.63;4991546;28;20026;-63
2022/09/10 05:39:33;;;;;;;26.17;19.40;;;;;;;-146.58;100.00;69501.63;4990267;28;20041;-63
2022/09/10 05:41:59;;;;;;;26.00;20.15;;;;;;;-146.58;100.00;69501.63;4990370;28;20518;-63
2022/09/10 05:44:25;;;;;;;32.38;23.15;;;;;;;-146.58;100.00;69501.63;4990055;28;20042;-63
2022/09/10 05:46:50;;;;;;;29.48;21.65;;;;;;;-146.58;100.00;69501.63;4991573;28;20030;-64
2022/09/10 05:49:16;;;;;;;29.70;22.52;;;;;;;-146.58;100.00;69501.63;4989277;28;20046;-63
2022/09/10 05:51:41;;;;;;;30.10;20.92;;;;;;;-146.58;100.00;69501.63;4991683;28;20022;-63
2022/09/10 05:54:07;;;;;;;33.90;21.92;;;;;;;-146.58;100.00;69501.63;4989472;28;20054;-63
2022/09/10 05:56:33;;;;;;;34.05;23.27;;;;;;;-146.58;100.00;69501.63;4989425;28;20073;-63
2022/09/10 05:58:59;;;;;;;33.35;22.92;;;;;;;-146.58;100.00;69501.63;4988975;28;20506;-63
2022/09/10 06:01:24;;;;;;;31.48;21.30;;;;;;;-146.58;100.00;69501.63;4991022;28;20060;-64
2022/09/10 06:03:50;;;;;;;39.53;22.55;;;;;;;-146.58;100.00;69501.63;4988608;28;20033;-63
2022/09/10 06:06:16;;;;;;;30.13;21.90;;;;;;;-146.58;100.00;69501.63;4990886;28;20383;-63
2022/09/10 06:08:42;;;;;;;34.65;22.25;;;;;;;-146.58;100.00;69501.63;4989722;28;20026;-65
2022/09/10 06:11:09;;;;;;;34.20;23.23;;;;;;;-146.58;100.00;69501.63;4989409;28;20065;-65
2022/09/10 06:13:38;;;;;;;27.40;21.10;;;;;;;-146.58;100.00;69501.63;4990320;28;20033;-60
2022/09/10 06:16:04;;;;;;;27.73;22.30;;;;;;;-146.58;100.00;69501.63;4990701;28;20092;-61
2022/09/10 06:18:30;;;;;;;35.38;22.48;;;;;;;-146.58;100.00;69501.63;4990100;28;20030;-61
2022/09/10 06:21:10;;;;;;;24.85;20.30;;;;;;;-146.58;100.00;69501.63;4989477;28;20101;-61
2022/09/10 06:23:35;;;;;;;32.35;21.10;;;;;;;-146.58;100.00;69501.63;4990505;28;20034;-60
2022/09/10 06:26:03;;;;;;;33.38;22.55;;;;;;;-146.58;100.00;69501.63;4989442;28;20026;-61
2022/09/10 06:28:29;;;;;;;34.50;24.37;;;;;;;-146.58;100.00;69501.63;4991031;28;20088;-61
2022/09/10 06:30:54;;;;;;;30.65;19.55;;;;;;;-146.58;100.00;69501.63;4988638;28;20050;-61
2022/09/10 06:33:20;;;;;;;25.77;20.55;;;;;;;-146.58;100.00;69501.63;4988607;28;20718;-61
2022/09/10 06:35:54;;;;;;;31.67;20.30;;;;;;;-146.58;100.00;69501.63;4989357;28;20301;-61
2022/09/10 06:38:20;;;;;;;28.42;22.83;;;;;;;-146.58;100.00;69501.63;4990786;28;20036;-61
2022/09/10 06:40:53;;;;;;;28.08;22.50;;;;;;;-146.58;100.00;69501.63;4988233;28;20425;-61
2022/09/10 06:43:22;;;;;;;29.60;19.75;;;;;;;-146.58;100.00;69501.63;4990941;28;20109;-61
2022/09/10 06:45:52;;;;;;;24.50;18.05;;;;;;;-146.58;100.00;69501.63;4990299;28;20402;-61
2022/09/10 06:48:26;;;;;;;25.13;20.15;;;;;;;-146.58;100.00;69501.63;4977881;28;20060;-61
2022/09/10 06:50:57;;;;;;;25.02;19.05;;;;;;;-146.58;100.00;69501.63;4992552;28;20044;-61
2022/09/10 06:53:24;;;;;;;25.77;20.25;;;;;;;-146.58;100.00;69501.63;4995127;28;20027;-61
2022/09/10 06:55:51;;;;;;;31.50;19.90;;;;;;;-146.58;100.00;69501.63;4991244;28;20042;-61
2022/09/10 06:58:18;;;;;;;24.38;19.95;;;;;;;-146.58;100.00;69501.63;4994265;28;20613;-61
2022/09/10 07:00:47;;;;;;;22.80;18.38;;;;;;;-146.58;100.00;69501.63;5001076;28;20034;-61
2022/09/10 07:03:16;;;;;;;;;;;;;;;-146.58;100.00;69501.63;4994743;28;20105;-61
2022/09/10 07:05:43;;;;;;;22.73;17.13;;;;;;;-146.58;100.00;69501.63;4992657;28;19922;-60
2022/09/10 07:08:11;;;;;;;28.85;20.30;;;;;;;-146.58;100.00;69501.63;4994224;28;20058;-60
2022/09/10 07:10:37;;;;;;;23.60;19.67;;;;;;;-146.58;100.00;69501.63;4991684;28;20053;-61
2022/09/10 07:13:02;;;;;;;20.52;18.40;;;;;;;-146.58;100.00;69501.63;4993602;28;20513;-60
2022/09/10 07:15:28;;;;;;;22.88;15.63;;;;;;;-146.58;100.00;69501.63;4992582;28;20042;-61
2022/09/10 07:17:53;;;;;;;27.05;22.25;;;;;;;-146.58;100.00;69501.63;4993477;28;20033;-61
2022/09/10 07:20:22;;;;;;;28.98;19.63;;;;;;;-146.58;100.00;69501.63;4989899;28;20112;-61
2022/09/10 07:22:50;;;;;;;21.40;15.63;;;;;;;-146.58;100.00;69501.63;5006550;28;20030;-61
2022/09/10 07:25:15;;;;;;;;;;;;;;;-146.58;100.00;69501.63;4992568;28;20093;-59
2022/09/10 07:27:41;;;;;;;26.30;17.47;;;;;;;-146.58;100.00;69501.63;4994256;28;20000;-61
2022/09/10 07:30:06;;;;;;;22.95;18.38;;;;;;;-146.58;100.00;69501.63;4990198;28;20596;-61
2022/09/10 07:32:32;;;;;;;22.40;17.52;;;;;;;-146.58;100.00;69501.63;4993396;28;20057;-60
2022/09/10 07:34:58;;;;;;;22.00;16.70;;;;;;;-146.58;100.00;69501.63;4992192;28;20047;-61
2022/09/10 07:37:24;;;;;;;25.98;18.23;;;;;;;-146.58;100.00;69501.63;4993124;28;20066;-61
2022/09/10 07:39:50;;;;;;;25.05;20.30;;;;;;;-146.58;100.00;69501.63;4991952;28;20030;-60
2022/09/10 07:42:15;;;;;;;20.02;16.58;;;;;;;-146.58;100.00;69501.63;4993561;28;20027;-60
2022/09/10 07:44:40;;;;;;;25.52;16.80;;;;;;;-146.58;100.00;69501.63;4992288;28;20050;-61
2022/09/10 07:47:05;;;;;;;17.05;15.30;;;;;;;-146.58;100.00;69501.63;4992926;28;20034;-61
2022/09/10 07:49:31;;;;;;;21.25;13.80;;;;;;;-146.58;100.00;69501.63;4992188;28;20043;-61
2022/09/10 07:51:56;;;;;;;20.35;15.38;;;;;;;-146.58;100.00;69501.63;4994031;28;20381;-61
2022/09/10 07:54:23;;;;;;;15.30;13.07;;;;;;;-146.58;100.00;69501.63;4991549;28;20093;-61
2022/09/10 07:56:49;;;;;;;22.55;13.90;;;;;;;-146.58;100.00;69501.63;4989423;28;20429;-61
2022/09/10 07:59:14;;;;;;;14.25;12.55;;;;;;;-146.58;100.00;69501.63;4991654;28;20037;-61
2022/09/10 08:01:40;;;;;;;15.70;10.93;;;;;;;-146.58;100.00;69501.63;4993419;28;20026;-61
2022/09/10 08:04:06;;;;;;;12.43;10.70;;;;;;;-146.58;100.00;69501.63;4991998;28;20095;-60
2022/09/10 08:06:32;;;;;;;11.90;10.70;;;;;;;-146.58;100.00;69501.63;4993854;28;20023;-60
2022/09/10 08:08:58;;;;;;;12.65;10.70;;;;;;;-146.58;100.00;69501.63;4990990;28;20461;-60
2022/09/10 08:11:25;;;;;;;10.85;9.75;;;;;;;-146.58;100.00;69501.63;4993300;28;20026;-61
2022/09/10 08:13:52;;;;;;;9.57;8.60;;;;;;;-146.58;100.00;69501.63;4992210;28;20061;-61
2022/09/10 08:16:20;;;;;;;12.93;9.02;;;;;;;-146.58;100.00;69501.63;4993422;28;20080;-60
2022/09/10 08:18:46;;;;;;;12.75;11.18;;;;;;;-146.58;100.00;69501.63;4992172;28;20029;-61
2022/09/10 08:21:12;;;;;;;13.75;11.48;;;;;;;-146.58;100.00;69501.63;4993346;28;20110;-61
2022/09/10 08:23:40;;;;;;;11.68;10.48;;;;;;;-146.58;100.00;69501.63;4991912;28;20113;-61
2022/09/10 08:26:07;;;;;;;9.55;8.57;;;;;;;-146.58;100.00;69501.63;4993184;28;20022;-61
2022/09/10 08:28:33;;;;;;;9.38;8.45;;;;;;;-146.58;100.00;69501.63;4992531;28;20522;-60
2022/09/10 08:31:00;;;;;;;14.48;9.77;;;;;;;-146.58;100.00;69501.63;4991369;28;20042;-60
2022/09/10 08:33:30;;;;;;;11.73;9.02;;;;;;;-146.58;100.00;69501.63;4993446;28;20030;-61
2022/09/10 08:35:57;;;;;;;11.95;8.95;;;;;;;-146.58;100.00;69501.63;4991103;28;20488;-61
2022/09/10 08:38:44;;;;;;;11.60;10.23;;;;;;;-146.58;100.00;69501.63;4992767;28;20470;-60
2022/09/10 08:41:20;;;;;;;10.05;7.80;;;;;;;-146.58;100.00;69501.63;4991336;28;20132;-60
2022/09/10 08:43:57;;;;;;;8.13;7.40;;;;;;;-146.58;100.00;69501.63;4989638;28;20501;-60
2022/09/10 08:46:29;;;;;;;9.20;7.80;;;;;;;-146.58;100.00;69501.63;4997525;28;20030;-60
2022/09/10 08:49:17;;;;;;;12.25;8.40;;;;;;;-146.58;100.00;69501.63;4999868;28;20054;-61
2022/09/10 08:51:54;;;;;;;10.65;8.10;;;;;;;-146.58;100.00;69501.63;4996373;28;20596;-60
2022/09/10 08:54:24;;;;;;;9.75;8.63;;;;;;;-146.58;100.00;69501.63;4990860;28;20038;-60
2022/09/10 08:56:52;;;;;;;11.45;8.77;;;;;;;-146.58;100.00;69501.63;4992597;28;20027;-60
2022/09/10 08:59:25;;;;;;;8.18;6.57;;;;;;;-146.58;100.00;69501.63;4991308;28;20031;-60
2022/09/10 09:01:58;;;;;;;6.32;5.72;;;;;;;-146.58;100.00;69501.63;4991440;28;20030;-61
2022/09/10 09:04:41;;;;;;;9.85;6.68;;;;;;;-146.58;100.00;69501.63;4991053;28;20165;-60
2022/09/10 09:07:13;;;;;;;7.43;6.10;;;;;;;-146.58;100.00;69501.63;4991289;28;20053;-60
2022/09/10 09:09:39;;;;;;;8.65;5.40;;;;;;;-146.58;100.00;69501.63;4989869;28;20045;-60
2022/09/10 09:12:17;;;;;;;5.35;4.85;;;;;;;-146.58;100.00;69501.63;4991722;28;20034;-60
2022/09/10 09:15:09;;;;;;;8.23;5.93;;;;;;;-146.58;100.00;69501.63;4990702;28;20046;-60
2022/09/10 09:18:10;;;;;;;8.55;6.22;;;;;;;-146.58;100.00;69501.63;4991914;28;20026;-60
2022/09/10 09:20:48;;;;;;;10.23;5.53;;;;;;;-146.58;100.00;69501.63;4990218;28;20042;-60
2022/09/10 09:23:28;;;;;;;10.70;5.55;;;;;;;-146.58;100.00;69501.63;4992050;28;20049;-60
2022/09/10 09:26:15;;;;;;;7.25;4.57;;;;;;;-146.58;100.00;69501.63;4990767;28;20043;-60
2022/09/10 09:28:55;;;;;;;4.30;3.90;;;;;;;-146.58;100.00;69501.63;4991160;28;20038;-60
2022/09/10 09:31:31;;;;;;;6.00;5.13;;;;;;;18.66;100.00;165449.16;5067218;28;20626;-59
2022/09/10 09:34:11;;;;;;;5.95;4.68;;;;;;;18.66;100.00;165449.16;5060581;28;20084;-59
2022/09/10 09:36:44;;;;;;;6.47;4.05;;;;;;;18.78;100.00;165479.03;5016092;28;20030;-58
2022/09/10 09:39:22;;;;;;;4.78;3.25;;;;;;;18.68;100.00;165453.28;5006437;28;20078;-58
2022/09/10 09:42:01;;;;;;;4.90;4.17;;;;;;;18.94;100.00;165522.50;5007825;28;20025;-59
2022/09/10 09:44:48;;;;;;;3.25;2.70;;;;;;;19.26;100.00;165606.56;5006840;28;20050;-59
2022/09/10 09:47:13;;;;;;;4.25;3.05;;;;;;;19.45;100.00;165655.44;5008017;28;20077;-58
2022/09/10 09:49:39;;;;;;;3.63;3.10;;;;;;;19.51;100.00;165671.69;5006169;28;20034;-58
2022/09/10 09:52:26;;;;;;;5.18;3.83;;;;;;;19.48;100.00;165663.53;5006407;28;20163;-58
2022/09/10 09:54:56;;;;;;;3.47;3.20;;;;;;;19.53;100.00;165675.75;5006116;28;20065;-58
2022/09/10 09:57:22;;;;;;;5.07;3.08;;;;;;;19.61;100.00;165698.84;5007127;28;20038;-59
2022/09/10 09:59:48;;;;;;;3.45;3.15;;;;;;;19.50;100.00;165670.38;5006036;28;20049;-58
2022/09/10 10:02:24;;;;;;;4.95;3.85;;;;;;;19.49;100.00;165666.25;5006736;28;20029;-58
2022/09/10 10:05:08;;;;;;;5.13;4.63;;;;;;;19.65;100.00;165709.69;5006461;28;20582;-58
2022/09/10 10:07:35;;;;;;;5.00;4.55;;;;;;;19.56;100.00;165685.25;5005891;28;20509;-59
2022/09/10 10:10:04;;;;;;;4.35;3.90;;;;;;;19.42;100.00;165647.25;5006075;28;20044;-59
2022/09/10 10:12:30;;;;;;;4.88;3.83;;;;;;;19.31;100.00;165620.16;5008012;28;20117;-59
2022/09/10 10:14:57;;;;;;;5.80;5.13;;;;;;;19.06;100.00;165553.69;5005800;28;20038;-59
2022/09/10 10:17:39;;;;;;;5.38;4.93;;;;;;;18.88;100.00;165506.13;5007764;28;20022;-59
2022/09/10 10:20:15;;;;;;;5.38;4.85;;;;;;;18.64;100.00;165442.41;5006114;28;20136;-59
2022/09/10 10:22:45;;;;;;;7.15;5.40;;;;;;;18.43;100.00;165386.81;5007219;28;20112;-58
2022/09/10 10:25:35;;;;;;;6.55;5.95;;;;;;;18.28;100.00;165348.81;5006008;28;20054;-58
2022/09/10 10:28:01;;;;;;;7.32;6.63;;;;;;;18.24;100.00;165338.00;5007507;28;20022;-58
2022/09/10 10:30:30;;;;;;;6.20;5.57;;;;;;;18.18;100.00;165321.72;5005960;28;20120;-58
2022/09/10 10:32:57;;;;;;;5.55;5.05;;;;;;;18.01;100.00;165278.34;5027133;28;20026;-59
2022/09/10 10:35:34;;;;;;;6.72;5.75;;;;;;;17.96;100.00;165264.78;5017004;28;20081;-58
2022/09/10 10:38:21;;;;;;;7.15;6.00;;;;;;;17.94;100.00;165259.31;5006557;28;20085;-58
2022/09/10 10:41:10;;;;;;;8.20;5.43;;;;;;;17.91;100.00;165251.16;5004130;28;20057;-58
2022/09/10 10:43:51;;;;;;;7.13;6.43;;;;;;;17.69;100.00;165194.22;4992689;28;20037;-58
2022/09/10 10:46:23;;;;;;;6.55;5.93;;;;;;;17.54;100.00;165153.56;4993847;28;20061;-59
2022/09/10 10:49:11;;;;;;;8.45;6.80;;;;;;;17.43;100.00;165125.09;4992730;28;20636;-59
2022/09/10 10:52:12;;;;;;;8.05;7.28;;;;;;;17.17;100.00;165055.97;4990274;28;20494;-59
2022/09/10 10:55:01;;;;;;;9.95;6.97;;;;;;;16.96;100.00;165003.19;4992614;28;20045;-59
2022/09/10 10:58:15;;;;;;;9.05;6.88;;;;;;;16.91;100.00;164988.22;4994402;28;20035;-58
2022/09/10 11:00:57;;;;;;;9.32;7.45;;;;;;;16.80;100.00;164959.75;4970377;28;20486;-58
2022/09/10 11:03:34;;;;;;;11.00;7.55;;;;;;;16.69;100.00;164931.31;4992337;28;20042;-58
2022/09/10 11:06:07;;;;;;;10.70;9.13;;;;;;;16.58;100.00;164901.47;4992053;28;20536;-59
2022/09/10 11:08:44;;;;;;;10.93;9.45;;;;;;;16.57;100.00;164898.81;4994377;28;20057;-58
2022/09/10 11:11:34;;;;;;;12.50;10.65;;;;;;;16.61;100.00;164909.63;4992368;28;20057;-59
2022/09/10 11:14:34;;;;;;;12.05;11.00;;;;;;;16.63;100.00;164915.06;4992088;28;20539;-59